Cartersville, Georgia
Current Conditions -  °F | °C
As of 2:53 AM on Saturday 01 Nov 2014 (Local Time) from KVPC Reporting Station
Overcast Overcast  
Wind Chill:   Ceiling: 4700
Heat Index:   Visibility: 10mi
Dew Point: -3°   Wind: 8mph
Humidity: 60%   Direction: 290°WNW
Pressure: 30"   Gusts: NA
Location:  34.17°N, 84.79°W
Report Text: KVPC 010653Z AUTO 29007KT 200V350 10SM FEW036 BKN047 OVC060 04/M03 A3000 RMK AO2 SLP154 T00441028
Loading
Personal Weather Stations






























Interactive Weather Map
Tropical Storm Tracking
New forecast layout! Learn more

10-Day Weather Forecast

Advertisements
Track Severe Weather on mobile